Time;durP1;ratioP1;P1;durP2;ratioP2;P2;SDS_P1;SDS_P2;PMS_P1;PMS_P2;Temp;Humidity;BMP_temperature;BMP_pressure;BME280_temperature;BME280_humidity;BME280_pressure;Samples;Min_cycle;Max_cycle;Signal;HPM_P1;HPM_P2
2022/06/21 00:01:54;;;;;;;3.93;3.77;;;;;;;21.12;90.20;98943.22;5049631;28;20204;-64
2022/06/21 00:04:21;;;;;;;4.87;4.67;;;;;;;21.08;90.93;98944.38;5051540;28;20201;-64
2022/06/21 00:06:48;;;;;;;4.50;4.20;;;;;;;21.04;91.09;98954.22;5047349;28;20560;-64
2022/06/21 00:09:20;;;;;;;4.57;4.37;;;;;;;21.04;90.70;98958.59;5038880;28;20201;-64
2022/06/21 00:11:48;;;;;;;8.30;5.17;;;;;;;20.92;90.81;98956.03;5044084;28;20646;-64
2022/06/21 00:14:15;;;;;;;4.53;4.30;;;;;;;20.79;91.86;98950.16;5051432;28;20209;-64
2022/06/21 00:16:42;;;;;;;3.70;3.50;;;;;;;20.77;92.21;98946.00;5044509;28;20247;-64
2022/06/21 00:19:16;;;;;;;4.40;4.20;;;;;;;20.78;92.05;98948.47;5049750;28;20206;-64
2022/06/21 00:21:44;;;;;;;3.80;3.70;;;;;;;20.73;91.65;98950.63;5048518;28;20251;-64
2022/06/21 00:24:11;;;;;;;3.93;3.73;;;;;;;20.72;91.30;98946.38;5052366;28;20206;-64
2022/06/21 00:26:38;;;;;;;5.00;4.03;;;;;;;20.72;90.80;98950.75;5052039;28;20258;-64
2022/06/21 00:29:06;;;;;;;2.87;2.77;;;;;;;20.70;90.28;98957.84;5041573;28;20227;-64
2022/06/21 00:31:37;;;;;;;3.60;3.40;;;;;;;20.71;89.74;98957.72;5055273;28;20745;-64
2022/06/21 00:34:12;;;;;;;3.50;3.30;;;;;;;20.67;89.59;98951.13;5050761;28;20213;-64
2022/06/21 00:36:39;;;;;;;3.47;3.17;;;;;;;20.65;89.20;98953.00;5050741;28;20221;-64
2022/06/21 00:39:07;;;;;;;3.57;3.37;;;;;;;20.63;88.97;98939.28;5055081;28;20588;-64
2022/06/21 00:41:41;;;;;;;2.97;2.87;;;;;;;20.64;89.34;98945.31;5054926;28;20218;-64
2022/06/21 00:44:14;;;;;;;3.70;3.50;;;;;;;20.61;88.98;98941.19;5053794;28;20204;-64
2022/06/21 00:46:46;;;;;;;3.57;3.43;;;;;;;20.60;88.98;98931.72;5055215;28;20210;-64
2022/06/21 00:49:18;;;;;;;3.20;3.10;;;;;;;20.59;88.85;98924.84;5054882;28;20645;-64
2022/06/21 00:51:45;;;;;;;2.77;2.67;;;;;;;20.60;88.58;98923.91;5050003;28;20282;-64
2022/06/21 00:54:17;;;;;;;2.67;2.57;;;;;;;20.59;88.19;98927.44;5048807;28;20206;-64
2022/06/21 00:56:51;;;;;;;4.07;3.83;;;;;;;20.48;89.39;98921.44;5047959;28;20199;-64
2022/06/21 00:59:23;;;;;;;3.80;3.60;;;;;;;20.35;91.23;98908.53;5047675;28;20206;-64
2022/06/21 01:01:54;;;;;;;3.53;3.33;;;;;;;20.31;91.40;98907.94;5051520;28;20627;-64
2022/06/21 01:04:28;;;;;;;3.20;3.10;;;;;;;20.22;93.20;98915.59;5054351;28;20205;-64
2022/06/21 01:06:58;;;;;;;4.57;4.37;;;;;;;20.10;93.38;98901.75;5054744;28;20194;-64
2022/06/21 01:09:32;;;;;;;3.37;3.27;;;;;;;20.17;93.98;98907.31;5054748;28;20568;-64
2022/06/21 01:12:03;;;;;;;4.17;3.87;;;;;;;20.15;94.09;98902.25;5054453;28;20201;-64
2022/06/21 01:14:36;;;;;;;3.73;3.57;;;;;;;20.15;94.41;98901.41;5054287;28;20198;-64
2022/06/21 01:17:04;;;;;;;3.90;3.50;;;;;;;20.15;94.44;98904.00;5054602;28;20209;-64
2022/06/21 01:19:38;;;;;;;3.33;3.23;;;;;;;20.13;94.67;98905.91;5049805;28;20199;-64
2022/06/21 01:22:23;;;;;;;4.70;4.40;;;;;;;20.09;95.37;98909.69;5041394;28;20221;-64
2022/06/21 01:25:03;;;;;;;3.13;3.03;;;;;;;20.00;95.72;98913.00;5050863;28;20682;-64
2022/06/21 01:27:31;;;;;;;4.23;3.93;;;;;;;19.76;96.94;98910.47;5053102;28;20206;-64
2022/06/21 01:29:58;;;;;;;3.60;3.50;;;;;;;19.71;97.36;98905.59;5053956;28;20209;-64
2022/06/21 01:32:25;;;;;;;6.13;3.60;;;;;;;19.50;97.91;98883.81;5054014;28;20205;-64
2022/06/21 01:34:55;;;;;;;4.03;3.67;;;;;;;19.42;98.52;98885.34;5042902;28;20705;-64
2022/06/21 01:37:27;;;;;;;3.83;3.63;;;;;;;19.40;98.81;98888.06;5051403;28;20240;-64
2022/06/21 01:40:01;;;;;;;4.10;3.80;;;;;;;19.34;99.88;98898.88;5050181;28;20209;-64
2022/06/21 01:42:33;;;;;;;4.97;3.60;;;;;;;19.27;100.00;98908.06;5051921;28;20205;-64
2022/06/21 01:45:05;;;;;;;4.33;4.03;;;;;;;19.20;100.00;98892.09;5053871;28;20205;-64
2022/06/21 01:47:40;;;;;;;3.50;3.37;;;;;;;19.25;100.00;98899.56;5052430;28;20200;-64
2022/06/21 01:50:10;;;;;;;7.70;3.77;;;;;;;19.15;100.00;98863.03;5041824;28;20199;-64
2022/06/21 01:52:39;;;;;;;3.67;3.40;;;;;;;19.33;100.00;98892.84;5040692;28;20284;-64
2022/06/21 01:55:12;;;;;;;4.27;4.07;;;;;;;19.38;100.00;98882.13;5041023;28;20564;-64
2022/06/21 01:57:40;;;;;;;3.13;3.03;;;;;;;19.37;100.00;98883.03;5052279;28;20194;-64
2022/06/21 02:00:08;;;;;;;4.60;4.20;;;;;;;19.42;99.80;98878.34;5052911;28;20206;-64
2022/06/21 02:02:41;;;;;;;4.70;4.37;;;;;;;19.43;99.66;98872.22;5045045;28;20580;-64
2022/06/21 02:05:12;;;;;;;4.00;3.90;;;;;;;19.46;99.44;98885.00;5053581;28;20697;-64
2022/06/21 02:07:47;;;;;;;3.93;3.60;;;;;;;19.37;99.34;98863.09;5052977;28;20668;-64
2022/06/21 02:10:19;;;;;;;4.37;3.97;;;;;;;19.46;99.04;98886.75;5034676;28;20213;-64
2022/06/21 02:12:51;;;;;;;4.30;4.10;;;;;;;19.41;98.69;98884.50;5053618;28;20202;-64
2022/06/21 02:15:30;;;;;;;3.90;3.70;;;;;;;19.27;98.49;98877.69;5053364;28;20633;-64
2022/06/21 02:17:59;;;;;;;4.70;4.23;;;;;;;19.11;98.29;98877.16;5053274;28;20200;-64
2022/06/21 02:20:33;;;;;;;4.53;4.30;;;;;;;19.11;98.42;98891.94;5034569;28;20209;-64
2022/06/21 02:23:00;;;;;;;5.13;4.73;;;;;;;19.05;98.17;98895.81;5046002;28;20278;-64
2022/06/21 02:25:27;;;;;;;4.73;4.53;;;;;;;19.03;98.13;98894.28;5046192;28;20205;-64
2022/06/21 02:28:01;;;;;;;3.80;3.60;;;;;;;18.94;97.50;98884.53;5053174;28;20200;-64
2022/06/21 02:30:29;;;;;;;4.47;4.27;;;;;;;19.02;97.45;98901.22;5053342;28;20195;-64
2022/06/21 02:32:59;;;;;;;4.37;4.17;;;;;;;18.97;97.20;98899.88;5042884;28;20648;-64
2022/06/21 02:35:31;;;;;;;4.33;4.13;;;;;;;18.96;96.75;98899.06;5048392;28;20588;-64
2022/06/21 02:38:01;;;;;;;5.47;3.87;;;;;;;18.82;97.17;98894.88;5044247;28;20220;-64
2022/06/21 02:40:32;;;;;;;4.10;3.83;;;;;;;18.74;97.09;98875.59;5051296;28;20197;-64
2022/06/21 02:43:05;;;;;;;3.43;3.30;;;;;;;18.83;97.21;98896.53;5042710;28;20239;-64
2022/06/21 02:45:36;;;;;;;3.73;3.60;;;;;;;18.81;97.55;98901.00;5051918;28;20200;-64
2022/06/21 02:48:11;;;;;;;4.37;4.07;;;;;;;18.81;97.57;98885.41;5045476;28;20206;-64
2022/06/21 02:50:43;;;;;;;4.07;3.90;;;;;;;18.77;97.61;98885.75;5048645;28;20200;-64
2022/06/21 02:53:20;;;;;;;3.77;3.53;;;;;;;18.78;97.75;98901.22;5051749;28;20600;-64
2022/06/21 02:55:54;;;;;;;3.73;3.53;;;;;;;18.64;98.52;98892.75;5049770;28;20204;-64
2022/06/21 02:58:27;;;;;;;3.83;3.63;;;;;;;18.61;98.84;98890.38;5048857;28;20206;-64
2022/06/21 03:00:54;;;;;;;4.10;3.90;;;;;;;18.63;99.17;98891.94;5052180;28;20231;-64
2022/06/21 03:03:25;;;;;;;4.40;4.20;;;;;;;18.68;98.83;98889.81;5046007;28;20247;-64
2022/06/21 03:05:57;;;;;;;4.20;3.90;;;;;;;18.61;99.11;98892.97;5051503;28;20201;-64
2022/06/21 03:08:25;;;;;;;4.53;4.23;;;;;;;18.64;99.20;98884.97;5044047;28;20200;-64
2022/06/21 03:10:53;;;;;;;4.37;3.97;;;;;;;18.67;98.97;98890.78;5052474;28;20196;-64
2022/06/21 03:13:25;;;;;;;3.83;3.67;;;;;;;18.74;98.67;98894.56;5040941;28;20279;-64
2022/06/21 03:15:54;;;;;;;4.30;4.10;;;;;;;18.79;98.77;98891.66;5046069;28;20266;-64
2022/06/21 03:18:24;;;;;;;3.87;3.67;;;;;;;18.84;98.80;98889.53;5039059;28;20662;-64
2022/06/21 03:20:52;;;;;;;5.33;3.47;;;;;;;18.82;98.86;98884.47;5046098;28;20213;-64
2022/06/21 03:23:20;;;;;;;4.60;3.77;;;;;;;18.94;98.32;98879.31;5051968;28;20208;-64
2022/06/21 03:25:50;;;;;;;4.67;4.33;;;;;;;18.94;98.49;98879.31;5051997;28;20201;-64
2022/06/21 03:28:31;;;;;;;3.30;3.20;;;;;;;18.94;98.46;98871.53;5049152;28;20201;-64
2022/06/21 03:31:06;;;;;;;3.97;3.73;;;;;;;18.94;98.50;98864.56;5052287;28;20193;-64
2022/06/21 03:33:36;;;;;;;4.03;3.83;;;;;;;18.97;98.25;98859.16;5052349;28;20211;-64
2022/06/21 03:36:07;;;;;;;3.70;3.40;;;;;;;19.02;97.79;98851.03;5051741;28;20211;-64
2022/06/21 03:38:35;;;;;;;3.87;3.67;;;;;;;19.11;97.83;98851.19;5041408;28;20231;-64
2022/06/21 03:43:51;;;;;;;4.20;4.00;;;;;;;19.37;97.51;98849.25;5049415;28;20212;-64
2022/06/21 03:46:22;;;;;;;3.67;3.37;;;;;;;19.50;97.40;98842.22;5039996;28;20662;-64
2022/06/21 03:48:54;;;;;;;4.20;4.00;;;;;;;19.65;96.92;98840.22;5033186;28;20198;-64
2022/06/21 03:51:26;;;;;;;3.83;3.47;;;;;;;19.73;96.25;98838.72;5041180;28;20224;-64
2022/06/21 03:53:59;;;;;;;3.67;3.57;;;;;;;19.89;95.34;98831.41;5046738;28;20241;-64
2022/06/21 03:56:30;;;;;;;4.80;3.63;;;;;;;20.05;95.34;98830.19;5050592;28;20589;-64
2022/06/21 03:59:07;;;;;;;7.90;3.87;;;;;;;20.17;94.46;98831.84;5051520;28;20212;-64
2022/06/21 04:01:40;;;;;;;4.00;3.70;;;;;;;20.25;93.75;98838.13;5040492;28;20221;-64
2022/06/21 04:04:13;;;;;;;5.13;3.53;;;;;;;20.39;92.54;98839.63;5049927;28;20214;-64
2022/06/21 04:06:46;;;;;;;3.10;3.00;;;;;;;20.51;91.56;98832.66;5051462;28;20197;-64
2022/06/21 04:09:22;;;;;;;3.77;3.50;;;;;;;20.60;90.71;98834.50;5047400;28;20261;-64
2022/06/21 04:11:53;;;;;;;3.33;3.20;;;;;;;20.78;89.78;98833.84;5051434;28;20198;-64
2022/06/21 04:14:29;;;;;;;3.87;3.73;;;;;;;20.89;89.49;98828.63;5038814;28;20679;-64
2022/06/21 04:17:03;;;;;;;3.20;3.10;;;;;;;21.08;88.47;98829.72;5051445;28;20215;-64
2022/06/21 04:19:35;;;;;;;3.30;2.97;;;;;;;21.24;87.21;98830.97;5051263;28;20207;-64
2022/06/21 04:22:08;;;;;;;3.47;3.27;;;;;;;21.43;86.71;98831.09;5051261;28;20223;-64
2022/06/21 04:24:42;;;;;;;3.97;3.70;;;;;;;21.64;84.87;98838.06;5040194;28;20211;-64
2022/06/21 04:27:16;;;;;;;5.27;3.43;;;;;;;21.75;84.20;98841.41;5043758;28;20219;-64
2022/06/21 04:29:50;;;;;;;3.37;3.17;;;;;;;21.92;83.07;98846.06;5050273;28;20238;-64
2022/06/21 04:32:23;;;;;;;3.10;3.00;;;;;;;22.07;82.65;98828.25;5042784;28;20199;-64
2022/06/21 04:34:54;;;;;;;3.43;3.33;;;;;;;22.33;81.55;98852.09;5046370;28;20193;-64
2022/06/21 04:37:27;;;;;;;3.53;3.20;;;;;;;22.40;80.80;98827.09;5048374;28;20716;-64
2022/06/21 04:39:59;;;;;;;3.20;3.10;;;;;;;22.64;79.12;98845.88;5044674;28;20203;-64
2022/06/21 04:42:32;;;;;;;3.50;3.40;;;;;;;22.66;79.25;98843.97;5039059;28;20723;-64
2022/06/21 04:45:06;;;;;;;3.83;3.73;;;;;;;22.77;79.19;98828.16;5050910;28;20196;-64
2022/06/21 04:47:37;;;;;;;3.50;3.30;;;;;;;23.12;77.05;98829.41;5042509;28;20204;-64
2022/06/21 04:50:16;;;;;;;3.70;3.10;;;;;;;23.38;76.60;98825.22;5049462;28;20215;-64
2022/06/21 04:52:47;;;;;;;2.87;2.77;;;;;;;23.67;75.30;98831.25;5049290;28;20211;-64
2022/06/21 04:55:17;;;;;;;2.80;2.70;;;;;;;23.95;75.29;98830.31;5049942;28;20212;-64
2022/06/21 04:57:46;;;;;;;3.00;2.83;;;;;;;24.22;73.47;98831.31;5050733;28;20204;-64
2022/06/21 05:00:17;;;;;;;3.43;3.23;;;;;;;24.49;70.32;98828.69;5047961;28;20255;-67
2022/06/21 05:02:49;;;;;;;3.87;3.77;;;;;;;24.68;68.76;98830.38;5050535;28;20303;-67
2022/06/21 05:05:19;;;;;;;3.70;3.43;;;;;;;24.86;70.20;98834.66;5048700;28;20691;-67
2022/06/21 05:07:50;;;;;;;3.33;3.23;;;;;;;24.96;69.86;98837.22;5050583;28;20204;-67
2022/06/21 05:10:21;;;;;;;3.43;3.23;;;;;;;25.11;69.41;98835.69;5054388;28;20207;-67
2022/06/21 05:12:51;;;;;;;3.13;3.03;;;;;;;25.31;66.84;98845.03;5054221;28;20216;-67
2022/06/21 05:15:23;;;;;;;3.83;3.33;;;;;;;25.38;67.05;98835.56;5054625;28;20231;-67
2022/06/21 05:17:55;;;;;;;2.90;2.80;;;;;;;25.50;66.26;98831.75;5053822;28;20564;-67
2022/06/21 05:20:27;;;;;;;3.17;3.07;;;;;;;25.65;68.35;98839.91;5054179;28;20250;-67
2022/06/21 05:22:58;;;;;;;3.10;2.80;;;;;;;25.86;65.32;98842.13;5043634;28;20224;-67
2022/06/21 05:25:33;;;;;;;6.10;3.30;;;;;;;26.00;67.88;98829.25;5034144;28;20209;-67
2022/06/21 05:28:05;;;;;;;3.20;3.10;;;;;;;26.28;66.47;98847.44;5052561;28;20689;-67
2022/06/21 05:30:41;;;;;;;2.40;2.30;;;;;;;26.48;67.09;98838.31;5053972;28;20307;-67
2022/06/21 05:33:14;;;;;;;2.90;2.63;;;;;;;26.67;65.25;98832.75;5053862;28;20219;-67
2022/06/21 05:35:42;;;;;;;2.40;2.30;;;;;;;26.93;64.42;98844.00;5053939;28;20203;-67
2022/06/21 05:38:16;;;;;;;2.53;2.43;;;;;;;26.86;62.64;98843.00;5053488;28;20228;-67
2022/06/21 05:40:51;;;;;;;2.47;2.37;;;;;;;26.91;59.36;98840.72;5053918;28;20558;-67
2022/06/21 05:43:26;;;;;;;4.60;2.70;;;;;;;27.04;58.44;98842.88;5053821;28;20220;-67
2022/06/21 05:45:58;;;;;;;1.90;1.80;;;;;;;27.06;57.44;98854.88;5053017;28;20191;-66
2022/06/21 05:48:28;;;;;;;2.60;2.50;;;;;;;27.14;58.72;98831.19;5037842;28;20227;-67
2022/06/21 05:50:55;;;;;;;2.80;2.40;;;;;;;27.09;54.70;98838.75;5050762;28;20250;-66
2022/06/21 05:53:28;;;;;;;2.60;2.50;;;;;;;27.00;56.25;98839.75;5053530;28;20192;-67
2022/06/21 05:55:57;;;;;;;2.70;2.50;;;;;;;27.05;56.92;98831.34;5053106;28;20193;-66
2022/06/21 05:58:29;;;;;;;2.60;2.40;;;;;;;27.23;56.12;98829.38;5033737;28;20205;-67
2022/06/21 06:01:02;;;;;;;3.50;3.30;;;;;;;27.32;55.28;98824.94;5051348;28;20588;-67
2022/06/21 06:03:37;;;;;;;2.83;2.63;;;;;;;27.27;54.91;98814.09;5053244;28;20327;-67
2022/06/21 06:06:05;;;;;;;2.50;2.40;;;;;;;27.25;58.14;98808.16;5053383;28;20196;-67
2022/06/21 06:08:37;;;;;;;3.43;2.87;;;;;;;27.48;57.40;98822.31;5053115;28;20247;-67
2022/06/21 06:11:11;;;;;;;2.40;2.30;;;;;;;27.61;55.87;98823.44;5052824;28;20196;-67
2022/06/21 06:13:41;;;;;;;2.63;2.53;;;;;;;27.68;54.34;98828.03;5052498;28;20204;-67
2022/06/21 06:16:30;;;;;;;2.50;2.40;;;;;;;27.66;53.71;98820.28;5044870;28;20805;-67
2022/06/21 06:19:03;;;;;;;2.30;2.20;;;;;;;27.65;54.84;98821.28;5050078;28;20201;-67
2022/06/21 06:21:35;;;;;;;2.80;2.70;;;;;;;27.87;53.94;98825.84;5052641;28;20311;-67
2022/06/21 06:24:05;;;;;;;2.50;2.40;;;;;;;27.90;54.70;98816.75;5053211;28;20219;-67
2022/06/21 06:26:35;;;;;;;2.67;2.57;;;;;;;28.07;54.80;98829.75;5052701;28;20227;-67
2022/06/21 06:29:07;;;;;;;2.80;2.60;;;;;;;28.30;55.82;98836.91;5052861;28;20205;-67
2022/06/21 06:31:42;;;;;;;2.93;2.70;;;;;;;28.54;54.42;98834.13;5052515;28;20197;-67
2022/06/21 06:34:13;;;;;;;2.50;2.40;;;;;;;28.82;55.19;98829.22;5052512;28;20200;-67
2022/06/21 06:36:44;;;;;;;3.00;2.80;;;;;;;29.11;53.03;98834.59;5046310;28;20204;-67
2022/06/21 06:39:18;;;;;;;2.90;2.80;;;;;;;29.16;53.01;98827.78;5032698;28;20201;-67
2022/06/21 06:41:59;;;;;;;2.33;2.22;;;;;;;29.25;55.03;98819.78;5049892;28;20197;-67
2022/06/21 06:44:28;;;;;;;2.85;2.75;;;;;;;29.45;50.58;98823.56;5052277;28;20270;-66
2022/06/21 06:46:59;;;;;;;2.60;2.50;;;;;;;29.58;56.06;98826.41;5051559;28;20661;-67
2022/06/21 06:49:31;;;;;;;2.35;2.25;;;;;;;29.92;53.70;98829.38;5051240;28;20299;-67
2022/06/21 06:52:03;;;;;;;2.78;2.67;;;;;;;30.28;51.92;98824.13;5052378;28;20197;-67
2022/06/21 06:54:38;;;;;;;2.60;2.50;;;;;;;30.54;52.12;98828.94;5052058;28;20665;-66
2022/06/21 06:57:23;;;;;;;2.33;2.20;;;;;;;30.83;49.67;98820.88;5051256;28;20208;-67
2022/06/21 06:59:50;;;;;;;2.50;2.40;;;;;;;31.09;50.22;98823.81;5051974;28;20196;-67
2022/06/21 07:02:25;;;;;;;3.05;2.60;;;;;;;31.26;50.79;98812.94;5051895;28;20224;-67
2022/06/21 07:05:02;;;;;;;2.47;2.38;;;;;;;31.34;50.38;98807.50;5052088;28;20203;-67
2022/06/21 07:07:38;;;;;;;2.13;2.05;;;;;;;31.50;52.00;98815.19;5052177;28;20296;-66
2022/06/21 07:10:13;;;;;;;2.38;2.20;;;;;;;31.79;49.37;98814.16;5052425;28;20215;-63
2022/06/21 07:12:40;;;;;;;2.30;2.20;;;;;;;32.00;48.81;98812.22;5047840;28;20196;-62
2022/06/21 07:15:10;;;;;;;2.60;2.50;;;;;;;32.19;48.67;98810.69;5039739;28;20204;-63
2022/06/21 07:17:41;;;;;;;1.92;1.83;;;;;;;32.33;46.12;98815.03;5051641;28;20209;-63
2022/06/21 07:20:15;;;;;;;2.20;2.10;;;;;;;32.43;44.94;98812.00;5042329;28;20204;-64
2022/06/21 07:22:43;;;;;;;2.10;2.00;;;;;;;32.33;46.53;98806.25;5050654;28;20224;-63
2022/06/21 07:25:20;;;;;;;1.90;1.80;;;;;;;32.22;44.22;98805.81;5050346;28;20197;-63
2022/06/21 07:27:51;;;;;;;2.15;2.05;;;;;;;32.29;46.71;98810.31;5043037;28;20205;-62
2022/06/21 07:30:21;;;;;;;1.90;1.80;;;;;;;32.38;42.27;98806.47;5041510;28;20204;-62
2022/06/21 07:32:54;;;;;;;1.88;1.88;;;;;;;32.51;42.67;98795.88;5050657;28;20205;-62
2022/06/21 07:35:27;;;;;;;1.40;1.40;;;;;;;32.67;41.96;98799.00;5045757;28;20201;-65
2022/06/21 07:37:59;;;;;;;1.92;1.65;;;;;;;32.66;41.07;98807.19;5049824;28;20228;-66
2022/06/21 07:40:33;;;;;;;1.98;1.70;;;;;;;32.84;42.90;98799.44;5051198;28;20588;-66
2022/06/21 07:43:06;;;;;;;1.40;1.40;;;;;;;32.76;42.74;98800.44;5051250;28;20218;-66
2022/06/21 07:45:41;;;;;;;1.55;1.52;;;;;;;32.74;42.75;98789.22;5049520;28;20201;-65
2022/06/21 07:48:17;;;;;;;3.58;1.40;;;;;;;32.72;40.42;98793.09;5051136;28;20201;-66
2022/06/21 07:50:49;;;;;;;1.63;1.52;;;;;;;33.00;40.00;98806.19;5051134;28;20196;-65
2022/06/21 07:53:24;;;;;;;1.98;1.88;;;;;;;33.02;41.46;98802.31;5051343;28;20197;-66
2022/06/21 07:55:56;;;;;;;3.03;2.92;;;;;;;32.92;39.72;98801.09;5033640;28;20250;-66
2022/06/21 07:58:31;;;;;;;1.70;1.70;;;;;;;33.01;41.54;98806.00;5042296;28;20197;-66
2022/06/21 08:06:45;;;;;;;5.32;1.98;;;;;;;33.13;40.83;98815.03;5049545;28;20576;-66
2022/06/21 08:09:23;;;;;;;1.70;1.60;;;;;;;33.28;42.21;98807.66;5051200;28;20291;-66
2022/06/21 08:11:52;;;;;;;1.70;1.70;;;;;;;33.37;40.81;98813.59;5051317;28;20648;-66
2022/06/21 08:14:19;;;;;;;2.10;2.00;;;;;;;33.31;40.62;98816.25;5048862;28;20197;-67
2022/06/21 08:16:53;;;;;;;1.70;1.70;;;;;;;33.27;41.48;98815.84;5050639;28;20205;-66
2022/06/21 08:19:28;;;;;;;2.30;2.08;;;;;;;33.40;42.70;98813.19;5048490;28;20227;-66
2022/06/21 08:22:00;;;;;;;3.15;1.85;;;;;;;33.49;40.69;98809.28;5050791;28;21516;-66
2022/06/21 08:24:33;;;;;;;1.70;1.70;;;;;;;33.54;40.65;98809.44;5050948;28;20428;-65
2022/06/21 08:27:12;;;;;;;1.95;1.90;;;;;;;33.51;40.70;98817.84;5050497;28;20568;-66
2022/06/21 08:29:45;;;;;;;1.73;1.60;;;;;;;33.41;42.02;98814.00;5050746;28;20580;-66
2022/06/21 08:32:18;;;;;;;2.05;1.95;;;;;;;33.40;43.67;98809.69;5030802;28;20204;-66
2022/06/21 08:34:49;;;;;;;1.80;1.80;;;;;;;33.69;42.84;98825.22;5042313;28;20205;-66
2022/06/21 08:37:24;;;;;;;1.80;1.80;;;;;;;33.73;41.92;98818.47;5050170;28;20235;-66
2022/06/21 08:39:55;;;;;;;2.03;1.92;;;;;;;33.87;40.60;98816.56;5049412;28;20672;-66
2022/06/21 08:42:50;;;;;;;1.50;1.50;;;;;;;33.89;41.59;98810.03;5049594;28;20204;-66
2022/06/21 08:46:00;;;;;;;2.10;2.00;;;;;;;34.05;40.96;98820.22;5054652;28;20557;-66
2022/06/21 08:49:02;;;;;;;2.50;2.30;;;;;;;33.91;42.38;98818.59;5052489;28;20197;-66
2022/06/21 08:51:51;;;;;;;1.80;1.80;;;;;;;33.84;42.04;98817.81;5048362;28;20196;-65
2022/06/21 08:54:32;;;;;;;3.88;2.08;;;;;;;33.77;41.33;98822.31;5045610;28;20719;-66
2022/06/21 08:57:06;;;;;;;1.88;1.88;;;;;;;33.92;41.97;98814.94;5054234;28;20300;-66
2022/06/21 08:59:48;;;;;;;1.98;1.98;;;;;;;34.14;44.08;98808.34;5051772;28;20665;-66
2022/06/21 09:02:26;;;;;;;1.75;1.63;;;;;;;34.41;43.53;98809.03;5046103;28;20204;-66
2022/06/21 09:05:08;;;;;;;2.40;2.20;;;;;;;34.45;41.87;98801.41;5054346;28;20192;-67
2022/06/21 09:07:54;;;;;;;1.83;1.73;;;;;;;34.34;40.20;98804.75;5054197;28;20668;-66
2022/06/21 09:10:41;;;;;;;1.92;1.83;;;;;;;34.20;43.39;98785.38;5040751;28;20205;-66
2022/06/21 09:13:25;;;;;;;2.15;2.05;;;;;;;34.18;43.06;98804.22;5053910;28;20290;-66
2022/06/21 09:16:03;;;;;;;2.30;2.20;;;;;;;34.27;42.00;98813.59;5054073;28;20204;-66
2022/06/21 09:18:43;;;;;;;1.92;1.83;;;;;;;34.41;42.05;98802.88;5053908;28;20681;-66
2022/06/21 09:21:19;;;;;;;2.20;2.10;;;;;;;34.58;43.53;98796.00;5036798;28;20585;-66
2022/06/21 09:23:58;;;;;;;3.55;2.17;;;;;;;34.50;43.32;98780.31;5034189;28;20221;-67
2022/06/21 09:26:44;;;;;;;2.10;2.00;;;;;;;34.37;42.93;98786.53;5052859;28;20197;-66
2022/06/21 09:29:26;;;;;;;2.17;2.13;;;;;;;34.36;40.63;98784.88;5053642;28;20196;-66
2022/06/21 09:32:19;;;;;;;1.88;1.77;;;;;;;34.45;42.50;98777.44;5053586;28;20201;-66
2022/06/21 09:35:00;;;;;;;2.58;1.95;;;;;;;34.46;40.21;98769.25;5051332;28;20200;-66
2022/06/21 09:37:38;;;;;;;1.70;1.60;;;;;;;34.47;40.51;98775.41;5052447;28;20225;-66
2022/06/21 09:40:13;;;;;;;2.00;1.90;;;;;;;34.43;39.25;98774.19;5052850;28;20212;-66
2022/06/21 09:42:49;;;;;;;6.03;1.90;;;;;;;34.59;40.87;98771.03;5053512;28;20663;-66
2022/06/21 09:45:22;;;;;;;2.25;1.92;;;;;;;34.68;40.85;98773.22;5053339;28;20691;-66
2022/06/21 09:47:57;;;;;;;1.50;1.50;;;;;;;34.69;40.38;98747.44;5053484;28;20963;-67
2022/06/21 09:50:31;;;;;;;2.08;1.95;;;;;;;34.84;38.02;98753.25;5048224;28;20257;-66
2022/06/21 09:53:05;;;;;;;2.10;2.08;;;;;;;35.05;37.97;98757.38;5051806;28;20199;-66
2022/06/21 09:55:42;;;;;;;1.75;1.67;;;;;;;35.25;37.49;98758.84;5052850;28;20323;-66
2022/06/21 09:58:23;;;;;;;2.17;2.00;;;;;;;35.21;36.74;98752.34;5050489;28;20208;-66
2022/06/21 10:00:56;;;;;;;2.28;2.17;;;;;;;35.16;37.86;98752.16;5052491;28;20236;-66
2022/06/21 10:03:36;;;;;;;2.10;2.00;;;;;;;35.24;36.91;98751.91;5052882;28;20218;-66
2022/06/21 10:06:11;;;;;;;2.33;2.22;;;;;;;35.28;38.47;98745.06;5053078;28;20201;-66
2022/06/21 10:08:57;;;;;;;2.08;1.98;;;;;;;35.43;37.99;98749.25;5032934;28;20212;-65
2022/06/21 10:11:35;;;;;;;2.38;2.28;;;;;;;35.52;36.71;98742.59;5051242;28;20196;-66
2022/06/21 10:14:23;;;;;;;2.08;1.98;;;;;;;35.34;34.18;98745.25;5034031;28;20197;-66
2022/06/21 10:17:07;;;;;;;2.20;2.10;;;;;;;35.34;34.64;98750.56;5052666;28;20197;-66
2022/06/21 10:19:45;;;;;;;2.33;2.22;;;;;;;35.37;35.14;98740.28;5053005;28;20234;-66
2022/06/21 10:22:29;;;;;;;4.25;3.53;;;;;;;35.27;37.63;98740.81;5052717;28;20205;-66
2022/06/21 10:25:44;;;;;;;3.35;2.45;;;;;;;35.05;34.89;98720.91;5032643;28;20661;-66
2022/06/21 10:28:47;;;;;;;3.08;2.85;;;;;;;35.05;36.45;98720.09;4982795;28;20291;-65
2022/06/21 10:31:38;;;;;;;4.93;2.50;;;;;;;35.13;37.31;98727.81;5051092;28;20561;-65
2022/06/21 10:34:42;;;;;;;3.55;3.35;;;;;;;35.17;39.71;98723.69;5042041;28;20577;-66
2022/06/21 10:37:32;;;;;;;4.07;2.75;;;;;;;35.39;37.92;98721.41;5052547;28;20236;-66
2022/06/21 10:40:28;;;;;;;3.45;2.83;;;;;;;35.38;35.75;98720.59;5052241;28;20650;-66
2022/06/21 10:43:20;;;;;;;3.85;3.03;;;;;;;35.17;37.08;98713.84;5045259;28;20216;-66
2022/06/21 10:45:54;;;;;;;3.80;3.50;;;;;;;35.29;40.50;98714.72;5049449;28;20546;-66
2022/06/21 10:49:04;;;;;;;7.38;3.60;;;;;;;35.38;37.61;98719.78;5052469;28;20204;-66
2022/06/21 10:51:48;;;;;;;3.33;3.22;;;;;;;35.43;37.54;98722.59;5052626;28;20213;-66
2022/06/21 10:54:33;;;;;;;3.90;3.70;;;;;;;35.58;37.01;98715.03;5049117;28;20197;-66
2022/06/21 10:57:11;;;;;;;3.03;2.92;;;;;;;35.65;36.75;98721.13;5052354;28;20200;-66
2022/06/21 11:03:25;;;;;;;4.30;3.90;;;;;;;35.47;38.52;98719.28;5051321;28;20258;-65
2022/06/21 11:06:03;;;;;;;5.22;3.78;;;;;;;35.52;39.02;98710.59;5025623;28;20205;-65
2022/06/21 11:08:41;;;;;;;3.50;3.40;;;;;;;35.52;37.75;98723.91;5051793;28;20193;-66
2022/06/21 11:11:17;;;;;;;3.80;3.60;;;;;;;35.52;38.30;98718.59;5052081;28;20193;-66
2022/06/21 11:13:49;;;;;;;3.30;3.15;;;;;;;35.43;40.21;98701.25;5052093;28;20215;-66
2022/06/21 11:16:24;;;;;;;3.80;3.67;;;;;;;35.59;37.95;98722.03;5051555;28;20200;-66
2022/06/21 11:19:00;;;;;;;3.58;3.47;;;;;;;35.55;37.17;98726.13;5051457;28;20203;-66
2022/06/21 11:21:43;;;;;;;5.07;3.72;;;;;;;35.51;36.70;98714.31;5049892;28;20703;-66
2022/06/21 11:24:19;;;;;;;3.95;3.65;;;;;;;35.56;36.98;98717.09;5051304;28;20217;-66
2022/06/21 11:26:54;;;;;;;3.75;3.55;;;;;;;35.49;36.77;98716.38;5031276;28;20201;-66
2022/06/21 11:29:35;;;;;;;3.63;3.42;;;;;;;35.50;38.61;98713.50;5050596;28;20200;-66
2022/06/21 11:32:11;;;;;;;4.22;4.00;;;;;;;35.44;38.93;98708.22;5033481;28;20198;-65
2022/06/21 11:34:48;;;;;;;4.38;3.80;;;;;;;35.48;39.92;98712.09;5050239;28;20200;-66
2022/06/21 11:37:29;;;;;;;4.18;3.90;;;;;;;35.51;40.32;98714.31;5050181;28;20223;-66
2022/06/21 11:40:04;;;;;;;4.28;4.07;;;;;;;35.61;40.30;98711.94;5051344;28;20196;-66
2022/06/21 11:42:37;;;;;;;4.97;4.25;;;;;;;35.54;38.34;98708.53;5050255;28;20449;-74
2022/06/21 11:45:26;;;;;;;4.90;4.53;;;;;;;35.48;41.14;98715.53;5048936;28;20470;-69
2022/06/21 11:48:11;;;;;;;6.97;4.15;;;;;;;35.65;41.44;98705.13;5051216;28;20209;-71
2022/06/21 11:50:49;;;;;;;4.22;3.92;;;;;;;35.75;40.16;98698.25;5036636;28;20677;-70
2022/06/21 11:53:56;;;;;;;4.93;4.00;;;;;;;35.79;39.30;98704.75;5031493;28;20205;-71
2022/06/21 11:56:31;;;;;;;6.22;4.22;;;;;;;35.70;40.64;98694.63;4989412;28;20209;-70
2022/06/21 11:59:03;;;;;;;4.63;4.20;;;;;;;35.78;40.40;98696.97;5044069;28;20207;-70
2022/06/21 12:01:36;;;;;;;4.60;4.40;;;;;;;35.80;41.67;98692.25;5050894;28;20196;-71
2022/06/21 12:04:19;;;;;;;5.50;4.95;;;;;;;35.68;40.29;98689.50;5050986;28;20216;-71
2022/06/21 12:06:54;;;;;;;6.30;4.60;;;;;;;35.63;40.71;98704.56;5051013;28;20696;-71
2022/06/21 12:09:30;;;;;;;4.50;4.30;;;;;;;35.70;40.51;98682.09;5050282;28;20688;-70
2022/06/21 12:12:18;;;;;;;4.85;4.32;;;;;;;35.85;41.33;98697.69;5050871;28;20576;-69
2022/06/21 12:15:03;;;;;;;5.32;5.03;;;;;;;35.82;42.14;98692.81;5050820;28;20204;-70
2022/06/21 12:17:43;;;;;;;5.13;4.93;;;;;;;35.84;40.97;98688.06;5050826;28;20553;-71
2022/06/21 12:20:16;;;;;;;5.25;5.00;;;;;;;35.87;39.33;98692.94;5051079;28;20212;-71
2022/06/21 12:22:47;;;;;;;5.45;5.13;;;;;;;35.72;41.04;98681.88;5050767;28;20197;-71